createdAt,value
2023-05-08T00:05:28.837Z,7.60
2023-05-08T00:25:28.562Z,9.50
2023-05-08T00:45:28.285Z,5.60
2023-05-08T01:05:28.007Z,6.70
2023-05-08T01:25:27.775Z,6.30
2023-05-08T01:45:27.497Z,7.70
2023-05-08T02:05:27.218Z,8.90
2023-05-08T02:25:26.904Z,8.40
2023-05-08T02:45:26.638Z,10.60
2023-05-08T03:05:26.373Z,11.70
2023-05-08T03:25:26.068Z,10.30
2023-05-08T03:45:25.811Z,8.50
2023-05-08T04:05:25.537Z,12.20
2023-05-08T04:25:25.301Z,10.20
2023-05-08T04:45:25.006Z,9.10
2023-05-08T05:05:24.702Z,6.40
2023-05-08T05:25:24.440Z,7.50
2023-05-08T05:45:24.150Z,7.70
2023-05-08T06:05:23.883Z,6.30
2023-05-08T06:25:23.568Z,7.50
2023-05-08T06:45:23.332Z,7.90
2023-05-08T07:05:23.087Z,9.00
2023-05-08T07:25:22.732Z,8.10
2023-05-08T07:45:22.463Z,9.20
2023-05-08T08:05:22.183Z,11.20
2023-05-08T08:25:21.890Z,12.70
2023-05-08T08:45:21.657Z,12.10
2023-05-08T09:05:21.366Z,9.90
2023-05-08T09:25:21.149Z,7.90
2023-05-08T09:45:20.856Z,10.20
2023-05-08T10:05:20.636Z,8.40
2023-05-08T10:25:20.342Z,6.90
2023-05-08T10:45:20.030Z,7.50
2023-05-08T11:05:19.758Z,8.10
2023-05-08T11:25:19.471Z,6.00
2023-05-08T11:45:19.188Z,6.40
2023-05-08T12:05:18.918Z,6.20
2023-05-08T12:25:18.650Z,6.90
2023-05-08T12:45:18.398Z,7.10
2023-05-08T13:05:18.201Z,7.80
2023-05-08T13:25:17.846Z,7.90
2023-05-08T13:45:17.677Z,4.80
2023-05-08T14:05:17.434Z,5.50
2023-05-08T14:25:17.021Z,3.30
2023-05-08T14:45:17.093Z,4.00
2023-05-08T15:05:19.907Z,2.80
2023-05-08T15:25:16.479Z,4.30
2023-05-08T15:45:16.144Z,4.00
2023-05-08T16:05:15.641Z,3.30
2023-05-08T16:25:15.378Z,4.00
2023-05-08T16:45:15.423Z,2.70
2023-05-08T17:05:15.130Z,2.70
2023-05-08T17:25:14.610Z,4.10
2023-05-08T17:45:14.315Z,2.80
2023-05-08T18:05:14.078Z,3.00
2023-05-08T18:25:13.770Z,3.80
2023-05-08T18:45:13.480Z,7.30
2023-05-08T19:05:13.206Z,4.50
2023-05-08T19:25:12.932Z,4.30
2023-05-08T19:45:12.707Z,3.80
2023-05-08T20:25:12.082Z,3.20
2023-05-08T20:45:11.823Z,4.20
2023-05-08T21:05:11.676Z,4.70
2023-05-08T21:25:12.573Z,2.30
2023-05-08T21:45:11.089Z,4.10
2023-05-08T22:05:10.874Z,4.30
2023-05-08T22:25:10.482Z,2.90
2023-05-08T22:45:10.199Z,3.70
2023-05-08T23:05:09.950Z,2.80
2023-05-08T23:25:09.633Z,3.50
2023-05-08T23:45:09.352Z,2.70
